createdAt,value
2017-08-09T00:00:32.373Z,19.03
2017-08-09T00:01:39.399Z,18.96
2017-08-09T00:02:45.442Z,18.99
2017-08-09T00:03:53.484Z,18.98
2017-08-09T00:04:59.526Z,18.95
2017-08-09T00:06:06.667Z,18.92
2017-08-09T00:07:14.663Z,18.84
2017-08-09T00:08:20.702Z,18.87
2017-08-09T00:09:27.739Z,18.86
2017-08-09T00:10:35.002Z,18.83
2017-08-09T00:11:41.579Z,18.74
2017-08-09T00:12:48.670Z,18.77
2017-08-09T00:13:55.710Z,18.75
2017-08-09T00:15:02.774Z,18.66
2017-08-09T00:16:10.571Z,18.69
2017-08-09T00:17:16.635Z,18.67
2017-08-09T00:18:23.839Z,18.66
2017-08-09T00:19:30.468Z,18.65
2017-08-09T00:20:37.539Z,18.58
2017-08-09T00:21:45.420Z,18.60
2017-08-09T00:22:52.407Z,18.60
2017-08-09T00:24:00.462Z,18.57
2017-08-09T00:25:06.318Z,18.57
2017-08-09T00:26:12.619Z,18.51
2017-08-09T00:27:19.223Z,18.49
2017-08-09T00:28:27.278Z,18.47
2017-08-09T00:29:33.343Z,18.51
2017-08-09T00:30:41.341Z,18.49
2017-08-09T00:31:47.391Z,18.47
2017-08-09T00:32:54.482Z,18.45
2017-08-09T00:34:01.642Z,18.38
2017-08-09T00:35:08.744Z,18.36
2017-08-09T00:36:15.785Z,18.35
2017-08-09T00:37:23.626Z,18.39
2017-08-09T00:38:29.702Z,18.37
2017-08-09T00:39:37.543Z,18.35
2017-08-09T00:40:43.579Z,18.32
2017-08-09T00:41:50.662Z,18.31
2017-08-09T00:42:57.747Z,18.22
2017-08-09T00:44:04.773Z,18.21
2017-08-09T00:45:13.814Z,18.20
2017-08-09T00:46:18.923Z,18.23
2017-08-09T00:47:26.755Z,18.22
2017-08-09T00:48:32.815Z,18.20
2017-08-09T00:49:41.811Z,18.18
2017-08-09T00:50:47.715Z,18.15
2017-08-09T00:51:53.754Z,18.12
2017-08-09T00:53:00.823Z,18.11
2017-08-09T00:54:09.835Z,18.07
2017-08-09T00:55:14.883Z,18.05
2017-08-09T00:56:21.935Z,17.98
2017-08-09T00:57:29.771Z,18.02
2017-08-09T00:58:35.822Z,18.02
2017-08-09T00:59:43.808Z,17.95
2017-08-09T01:00:49.830Z,18.00
2017-08-09T01:01:56.863Z,17.99
2017-08-09T01:03:05.914Z,17.98
2017-08-09T01:04:11.910Z,17.92
2017-08-09T01:05:18.859Z,17.97
2017-08-09T01:06:24.919Z,17.97
2017-08-09T01:07:31.975Z,17.97
2017-08-09T01:08:39.283Z,17.96
2017-08-09T01:09:45.838Z,17.95
2017-08-09T01:10:52.872Z,17.94
2017-08-09T01:11:59.899Z,17.87
2017-08-09T01:13:06.931Z,17.91
2017-08-09T01:14:13.998Z,17.90
2017-08-09T01:15:21.034Z,17.82
2017-08-09T01:16:28.903Z,17.80
2017-08-09T01:17:34.930Z,17.83
2017-08-09T01:18:42.315Z,17.81
2017-08-09T01:19:49.858Z,17.79
2017-08-09T01:20:57.866Z,17.72
2017-08-09T01:22:02.902Z,17.71
2017-08-09T01:23:11.936Z,17.75
2017-08-09T01:24:17.196Z,17.71
2017-08-09T01:25:23.808Z,17.64
2017-08-09T01:26:30.850Z,17.62
2017-08-09T01:27:38.107Z,17.68
2017-08-09T01:28:46.651Z,17.66
2017-08-09T01:29:51.694Z,17.58
2017-08-09T01:30:58.722Z,17.58
2017-08-09T01:32:06.756Z,17.57
2017-08-09T01:33:14.600Z,17.55
2017-08-09T01:34:19.647Z,17.54
2017-08-09T01:35:26.698Z,17.51
2017-08-09T01:36:33.742Z,17.50
2017-08-09T01:37:40.778Z,17.55
2017-08-09T01:38:48.630Z,17.46
2017-08-09T01:39:54.679Z,17.44
2017-08-09T01:41:03.819Z,17.43
2017-08-09T01:42:08.871Z,17.46
2017-08-09T01:43:15.906Z,17.44
2017-08-09T01:44:22.990Z,17.36
2017-08-09T01:45:30.992Z,17.35
2017-08-09T01:46:37.107Z,17.40
2017-08-09T01:47:44.159Z,17.36
2017-08-09T01:48:52.107Z,17.36
2017-08-09T01:49:59.094Z,17.28
2017-08-09T01:51:05.179Z,17.31
2017-08-09T01:52:12.199Z,17.23
2017-08-09T01:53:20.207Z,17.22
2017-08-09T01:54:26.242Z,17.26
2017-08-09T01:55:33.320Z,17.18
2017-08-09T01:56:40.416Z,17.23
2017-08-09T01:57:48.405Z,17.16
2017-08-09T01:58:54.469Z,17.13
2017-08-09T02:00:01.771Z,17.12
2017-08-09T02:01:09.294Z,17.15
2017-08-09T02:02:15.342Z,17.13
2017-08-09T02:03:24.407Z,17.06
2017-08-09T02:04:30.379Z,17.10
2017-08-09T02:05:36.430Z,17.02
2017-08-09T02:06:44.402Z,17.07
2017-08-09T02:07:50.507Z,16.99
2017-08-09T02:08:58.518Z,16.97
2017-08-09T02:10:04.582Z,16.95
2017-08-09T02:11:11.612Z,16.93
2017-08-09T02:12:18.655Z,16.94
2017-08-09T02:13:26.587Z,16.98
2017-08-09T02:14:32.629Z,16.91
2017-08-09T02:15:40.677Z,16.95
2017-08-09T02:16:47.583Z,16.88
2017-08-09T02:17:53.638Z,16.88
2017-08-09T02:19:00.682Z,16.86
2017-08-09T02:20:07.794Z,16.91
2017-08-09T02:21:14.843Z,16.89
2017-08-09T02:22:21.882Z,16.89
2017-08-09T02:23:28.945Z,16.83
2017-08-09T02:24:35.994Z,16.83
2017-08-09T02:25:43.031Z,16.88
2017-08-09T02:26:50.474Z,16.83
2017-08-09T02:27:57.025Z,16.86
2017-08-09T02:29:04.082Z,16.85
2017-08-09T02:30:11.124Z,16.85
2017-08-09T02:31:18.412Z,16.83
2017-08-09T02:32:24.974Z,16.82
2017-08-09T02:33:32.003Z,16.81
2017-08-09T02:34:39.060Z,16.80
2017-08-09T02:35:46.106Z,16.74
2017-08-09T02:36:53.155Z,16.76
2017-08-09T02:38:02.178Z,16.71
2017-08-09T02:39:07.245Z,16.64
2017-08-09T02:40:15.160Z,16.60
2017-08-09T02:41:22.010Z,16.50
2017-08-09T02:42:28.079Z,16.53
2017-08-09T02:43:36.255Z,16.50
2017-08-09T02:44:42.658Z,16.48
2017-08-09T02:45:51.736Z,16.41
2017-08-09T02:46:58.859Z,16.46
2017-08-09T02:48:02.919Z,16.37
2017-08-09T02:49:09.962Z,16.35
2017-08-09T02:50:17.030Z,16.36
2017-08-09T02:51:24.134Z,16.40
2017-08-09T02:52:31.304Z,16.40
2017-08-09T02:53:38.809Z,16.40
2017-08-09T02:54:44.874Z,16.34
2017-08-09T02:55:52.007Z,16.38
2017-08-09T02:56:59.064Z,16.39
2017-08-09T02:58:06.277Z,16.39
2017-08-09T02:59:13.799Z,16.38
2017-08-09T03:00:21.806Z,16.36
2017-08-09T03:01:27.698Z,16.30
2017-08-09T03:02:38.619Z,16.35
2017-08-09T03:03:41.623Z,16.33
2017-08-09T03:04:47.671Z,16.32
2017-08-09T03:05:54.713Z,16.31
2017-08-09T03:07:01.851Z,16.24
2017-08-09T03:08:08.907Z,16.29
2017-08-09T03:09:15.976Z,16.23
2017-08-09T03:10:23.006Z,16.22
2017-08-09T03:11:30.075Z,16.25
2017-08-09T03:12:37.115Z,16.22
2017-08-09T03:13:44.148Z,16.19
2017-08-09T03:14:51.182Z,16.16
2017-08-09T03:15:58.218Z,16.14
2017-08-09T03:17:05.275Z,16.13
2017-08-09T03:18:12.329Z,16.12
2017-08-09T03:19:19.363Z,16.04
2017-08-09T03:20:26.395Z,16.07
2017-08-09T03:21:37.436Z,16.04
2017-08-09T03:22:40.468Z,16.02
2017-08-09T03:23:47.503Z,15.99
2017-08-09T03:24:54.539Z,15.92
2017-08-09T03:26:01.579Z,15.96
2017-08-09T03:27:08.639Z,15.88
2017-08-09T03:28:15.666Z,15.91
2017-08-09T03:29:22.694Z,15.83
2017-08-09T03:30:29.735Z,15.87
2017-08-09T03:31:36.775Z,15.80
2017-08-09T03:32:44.082Z,15.83
2017-08-09T03:33:50.707Z,15.76
2017-08-09T03:34:57.764Z,15.80
2017-08-09T03:36:04.804Z,15.78
2017-08-09T03:37:11.842Z,15.75
2017-08-09T03:38:18.889Z,15.69
2017-08-09T03:39:25.935Z,15.73
2017-08-09T03:40:33.004Z,15.70
2017-08-09T03:41:40.045Z,15.63
2017-08-09T03:42:47.097Z,15.70
2017-08-09T03:43:54.151Z,15.66
2017-08-09T03:45:01.191Z,15.65
2017-08-09T03:46:08.230Z,15.65
2017-08-09T03:47:15.283Z,15.64
2017-08-09T03:48:22.338Z,15.56
2017-08-09T03:49:29.383Z,15.54
2017-08-09T03:50:36.419Z,15.58
2017-08-09T03:51:43.471Z,15.51
2017-08-09T03:52:50.503Z,15.54
2017-08-09T03:53:57.554Z,15.53
2017-08-09T03:55:04.582Z,15.51
2017-08-09T03:56:11.615Z,15.49
2017-08-09T03:57:18.687Z,15.41
2017-08-09T03:58:25.756Z,15.45
2017-08-09T03:59:32.791Z,15.44
2017-08-09T04:00:39.864Z,15.42
2017-08-09T04:01:46.914Z,15.42
2017-08-09T04:02:53.960Z,15.39
2017-08-09T04:04:01.010Z,15.32
2017-08-09T04:05:08.053Z,15.36
2017-08-09T04:06:15.098Z,15.35
2017-08-09T04:07:22.163Z,15.32
2017-08-09T04:08:29.220Z,15.25
2017-08-09T04:09:39.323Z,15.29
2017-08-09T04:10:43.358Z,15.29
2017-08-09T04:11:50.417Z,15.22
2017-08-09T04:12:57.459Z,15.27
2017-08-09T04:14:04.503Z,15.27
2017-08-09T04:15:11.570Z,15.29
2017-08-09T04:16:18.662Z,15.29
2017-08-09T04:17:25.702Z,15.28
2017-08-09T04:18:32.750Z,15.27
2017-08-09T04:19:39.779Z,15.26
2017-08-09T04:20:46.850Z,15.25
2017-08-09T04:21:53.928Z,15.23
2017-08-09T04:23:00.974Z,15.22
2017-08-09T04:24:08.022Z,15.22
2017-08-09T04:25:15.091Z,15.19
2017-08-09T04:26:22.169Z,15.17
2017-08-09T04:27:29.243Z,15.11
2017-08-09T04:28:36.335Z,15.16
2017-08-09T04:29:43.379Z,15.16
2017-08-09T04:30:50.450Z,15.15
2017-08-09T04:31:57.482Z,15.13
2017-08-09T04:33:04.504Z,15.08
2017-08-09T04:34:11.523Z,15.06
2017-08-09T04:35:18.568Z,15.05
2017-08-09T04:36:25.615Z,15.10
2017-08-09T04:37:32.684Z,15.09
2017-08-09T04:38:39.723Z,15.08
2017-08-09T04:39:46.768Z,15.07
2017-08-09T04:40:53.806Z,15.07
2017-08-09T04:42:00.872Z,15.06
2017-08-09T04:43:07.915Z,15.02
2017-08-09T04:44:14.962Z,15.08
2017-08-09T04:45:21.991Z,15.03
2017-08-09T04:46:29.055Z,15.11
2017-08-09T04:47:36.086Z,15.11
2017-08-09T04:48:43.110Z,15.14
2017-08-09T04:49:50.146Z,15.10
2017-08-09T04:50:57.184Z,15.12
2017-08-09T04:52:04.254Z,15.20
2017-08-09T04:53:11.288Z,15.23
2017-08-09T04:54:18.331Z,15.19
2017-08-09T04:55:25.380Z,15.28
2017-08-09T04:56:32.455Z,15.25
2017-08-09T04:57:39.494Z,15.33
2017-08-09T04:58:46.534Z,15.30
2017-08-09T04:59:53.560Z,15.39
2017-08-09T05:01:00.591Z,15.36
2017-08-09T05:02:07.650Z,15.46
2017-08-09T05:03:14.678Z,15.43
2017-08-09T05:04:21.706Z,15.51
2017-08-09T05:05:28.735Z,15.48
2017-08-09T05:06:35.802Z,15.57
2017-08-09T05:07:42.834Z,15.58
2017-08-09T05:08:49.879Z,15.56
2017-08-09T05:09:56.902Z,15.65
2017-08-09T05:11:03.934Z,15.68
2017-08-09T05:12:10.975Z,15.71
2017-08-09T05:13:18.016Z,15.67
2017-08-09T05:14:25.055Z,15.69
2017-08-09T05:15:32.070Z,15.78
2017-08-09T05:16:39.102Z,15.80
2017-08-09T05:17:46.147Z,15.81
2017-08-09T05:18:53.178Z,15.84
2017-08-09T05:20:00.202Z,15.84
2017-08-09T05:21:07.234Z,15.86
2017-08-09T05:22:14.279Z,15.87
2017-08-09T05:23:21.331Z,15.83
2017-08-09T05:24:28.366Z,15.89
2017-08-09T05:25:35.417Z,15.90
2017-08-09T05:26:42.449Z,15.92
2017-08-09T05:27:49.518Z,15.92
2017-08-09T05:28:56.567Z,15.92
2017-08-09T05:30:03.598Z,15.93
2017-08-09T05:31:10.636Z,15.94
2017-08-09T05:32:17.667Z,15.94
2017-08-09T05:33:24.738Z,15.89
2017-08-09T05:34:31.770Z,15.96
2017-08-09T05:35:38.810Z,15.94
2017-08-09T05:36:45.834Z,15.94
2017-08-09T05:37:52.927Z,15.96
2017-08-09T05:38:59.995Z,15.94
2017-08-09T05:40:07.027Z,15.89
2017-08-09T05:41:14.096Z,15.94
2017-08-09T05:42:21.149Z,15.96
2017-08-09T05:43:28.200Z,15.96
2017-08-09T05:44:35.240Z,15.97
2017-08-09T05:45:42.287Z,15.93
2017-08-09T05:46:49.334Z,16.01
2017-08-09T05:47:56.366Z,15.96
2017-08-09T05:49:03.418Z,16.05
2017-08-09T05:50:10.467Z,16.07
2017-08-09T05:51:17.515Z,16.09
2017-08-09T05:52:24.554Z,16.10
2017-08-09T05:53:31.607Z,16.12
2017-08-09T05:54:38.645Z,16.13
2017-08-09T05:55:45.680Z,16.14
2017-08-09T05:56:52.703Z,16.16
2017-08-09T05:57:59.752Z,16.12
2017-08-09T05:59:06.808Z,16.13
2017-08-09T06:00:13.839Z,16.20
2017-08-09T06:01:20.887Z,16.20
2017-08-09T06:02:27.926Z,16.22
2017-08-09T06:03:34.959Z,16.17
2017-08-09T06:04:42.011Z,16.24
2017-08-09T06:05:49.051Z,16.25
2017-08-09T06:06:56.083Z,16.27
2017-08-09T06:08:03.135Z,16.27
2017-08-09T06:09:10.183Z,16.27
2017-08-09T06:10:17.234Z,16.30
2017-08-09T06:11:24.271Z,16.32
2017-08-09T06:12:31.303Z,16.32
2017-08-09T06:13:38.351Z,16.35
2017-08-09T06:14:45.402Z,16.30
2017-08-09T06:15:52.447Z,16.38
2017-08-09T06:16:59.484Z,16.35
2017-08-09T06:18:06.535Z,16.42
2017-08-09T06:19:13.583Z,16.45
2017-08-09T06:20:20.626Z,16.45
2017-08-09T06:21:27.654Z,16.47
2017-08-09T06:22:34.702Z,16.49
2017-08-09T06:23:41.736Z,16.50
2017-08-09T06:24:48.822Z,16.52
2017-08-09T06:25:55.859Z,16.54
2017-08-09T06:27:02.899Z,16.55
2017-08-09T06:28:09.922Z,16.57
2017-08-09T06:29:16.952Z,16.53
2017-08-09T06:30:23.990Z,16.60
2017-08-09T06:31:31.044Z,16.55
2017-08-09T06:32:38.071Z,16.62
2017-08-09T06:33:45.118Z,16.65
2017-08-09T06:34:52.151Z,16.66
2017-08-09T06:35:59.183Z,16.69
2017-08-09T06:37:06.240Z,16.63
2017-08-09T06:38:13.290Z,16.72
2017-08-09T06:39:20.315Z,16.73
2017-08-09T06:40:27.382Z,16.75
2017-08-09T06:41:34.426Z,16.77
2017-08-09T06:42:41.468Z,16.72
2017-08-09T06:43:48.502Z,16.75
2017-08-09T06:44:55.569Z,16.81
2017-08-09T06:46:02.622Z,16.85
2017-08-09T06:47:09.675Z,16.85
2017-08-09T06:48:16.721Z,16.87
2017-08-09T06:49:25.803Z,16.85
2017-08-09T06:50:30.867Z,16.92
2017-08-09T06:51:37.915Z,16.93
2017-08-09T06:52:46.224Z,16.95
2017-08-09T06:53:53.502Z,16.93
2017-08-09T06:54:58.915Z,16.94
2017-08-09T06:56:05.477Z,17.03
2017-08-09T06:57:12.543Z,17.04
2017-08-09T06:58:19.598Z,17.06
2017-08-09T06:59:26.646Z,17.01
2017-08-09T07:00:33.683Z,17.09
2017-08-09T07:01:40.730Z,17.09
2017-08-09T07:02:47.782Z,17.06
2017-08-09T07:03:54.817Z,17.12
2017-08-09T07:05:01.847Z,17.08
2017-08-09T07:06:08.882Z,17.15
2017-08-09T07:07:15.915Z,17.10
2017-08-09T07:08:22.983Z,17.17
2017-08-09T07:09:30.010Z,17.18
2017-08-09T07:10:37.055Z,17.21
2017-08-09T07:11:44.083Z,17.21
2017-08-09T07:12:51.148Z,17.16
2017-08-09T07:13:58.194Z,17.17
2017-08-09T07:15:05.242Z,17.23
2017-08-09T07:16:12.266Z,17.24
2017-08-09T07:17:19.314Z,17.19
2017-08-09T07:18:26.367Z,17.20
2017-08-09T07:19:33.411Z,17.27
2017-08-09T07:20:40.451Z,17.25
2017-08-09T07:21:47.492Z,17.26
2017-08-09T07:22:54.542Z,17.29
2017-08-09T07:24:01.600Z,17.31
2017-08-09T07:25:08.641Z,17.40
2017-08-09T07:26:15.698Z,17.38
2017-08-09T07:27:22.748Z,17.42
2017-08-09T07:28:29.795Z,17.49
2017-08-09T07:29:36.851Z,17.48
2017-08-09T07:30:43.898Z,17.51
2017-08-09T07:31:50.939Z,17.56
2017-08-09T07:32:57.970Z,17.63
2017-08-09T07:34:05.017Z,17.69
2017-08-09T07:35:12.058Z,17.66
2017-08-09T07:36:19.106Z,17.70
2017-08-09T07:37:26.139Z,17.73
2017-08-09T07:38:33.187Z,17.82
2017-08-09T07:39:40.239Z,17.81
2017-08-09T07:40:47.293Z,17.83
2017-08-09T07:41:54.339Z,17.87
2017-08-09T07:43:01.374Z,17.91
2017-08-09T07:44:08.430Z,17.94
2017-08-09T07:45:15.475Z,17.97
2017-08-09T07:46:22.509Z,18.01
2017-08-09T07:47:29.539Z,18.09
2017-08-09T07:48:36.586Z,18.05
2017-08-09T07:49:43.639Z,18.07
2017-08-09T07:50:50.679Z,18.16
2017-08-09T07:51:57.723Z,18.12
2017-08-09T07:53:04.782Z,18.20
2017-08-09T07:54:11.851Z,18.22
2017-08-09T07:55:18.892Z,18.19
2017-08-09T07:56:25.931Z,18.21
2017-08-09T07:57:32.963Z,18.23
2017-08-09T07:58:40.002Z,18.33
2017-08-09T07:59:47.051Z,18.31
2017-08-09T08:00:54.099Z,18.34
2017-08-09T08:02:01.131Z,18.37
2017-08-09T08:03:08.172Z,18.39
2017-08-09T08:04:15.210Z,18.49
2017-08-09T08:05:22.266Z,18.47
2017-08-09T08:06:29.306Z,18.56
2017-08-09T08:07:36.376Z,18.56
2017-08-09T08:08:43.423Z,18.65
2017-08-09T08:09:50.466Z,18.63
2017-08-09T08:10:57.530Z,18.66
2017-08-09T08:12:04.576Z,18.71
2017-08-09T08:13:11.610Z,18.81
2017-08-09T08:14:18.657Z,18.85
2017-08-09T08:15:25.694Z,18.88
2017-08-09T08:16:32.743Z,18.93
2017-08-09T08:17:39.771Z,18.96
2017-08-09T08:18:46.811Z,19.00
2017-08-09T08:19:53.843Z,19.02
2017-08-09T08:21:00.903Z,18.99
2017-08-09T08:22:07.939Z,19.03
2017-08-09T08:23:14.999Z,19.09
2017-08-09T08:24:22.035Z,19.12
2017-08-09T08:25:29.071Z,19.14
2017-08-09T08:26:36.138Z,19.14
2017-08-09T08:27:43.178Z,19.11
2017-08-09T08:28:50.211Z,19.10
2017-08-09T08:29:57.254Z,19.16
2017-08-09T08:31:04.300Z,19.16
2017-08-09T08:32:11.354Z,19.10
2017-08-09T08:33:18.396Z,19.16
2017-08-09T08:34:25.438Z,19.16
2017-08-09T08:35:32.466Z,19.15
2017-08-09T08:36:39.527Z,19.15
2017-08-09T08:37:46.580Z,19.09
2017-08-09T08:38:53.619Z,19.11
2017-08-09T08:40:00.661Z,19.16
2017-08-09T08:41:07.691Z,19.16
2017-08-09T08:42:14.738Z,19.11
2017-08-09T08:43:21.774Z,19.18
2017-08-09T08:44:28.803Z,19.12
2017-08-09T08:45:35.883Z,19.19
2017-08-09T08:46:42.920Z,19.22
2017-08-09T08:47:49.976Z,19.21
2017-08-09T08:48:57.358Z,19.23
2017-08-09T08:50:03.887Z,19.24
2017-08-09T08:51:10.907Z,19.25
2017-08-09T08:52:17.956Z,19.26
2017-08-09T08:53:25.006Z,19.27
2017-08-09T08:54:32.048Z,19.27
2017-08-09T08:55:39.095Z,19.29
2017-08-09T08:56:46.151Z,19.30
2017-08-09T08:57:53.243Z,19.32
2017-08-09T08:59:00.270Z,19.35
2017-08-09T09:00:07.296Z,19.31
2017-08-09T09:01:14.336Z,19.33
2017-08-09T09:02:21.383Z,19.36
2017-08-09T09:03:28.439Z,19.46
2017-08-09T09:04:35.488Z,19.52
2017-08-09T09:05:42.538Z,19.57
2017-08-09T09:06:49.579Z,19.64
2017-08-09T09:07:56.644Z,19.69
2017-08-09T09:09:03.739Z,19.69
2017-08-09T09:10:10.813Z,19.81
2017-08-09T09:11:17.874Z,19.87
2017-08-09T09:12:24.919Z,19.94
2017-08-09T09:13:31.969Z,19.99
2017-08-09T09:14:39.015Z,19.97
2017-08-09T09:15:46.059Z,20.07
2017-08-09T09:16:53.103Z,20.10
2017-08-09T09:18:00.163Z,20.15
2017-08-09T09:19:07.218Z,20.17
2017-08-09T09:20:14.251Z,20.21
2017-08-09T09:21:21.278Z,20.25
2017-08-09T09:22:28.311Z,20.32
2017-08-09T09:23:35.362Z,20.38
2017-08-09T09:24:42.410Z,20.44
2017-08-09T09:25:49.448Z,20.53
2017-08-09T09:26:56.480Z,20.63
2017-08-09T09:28:03.526Z,20.66
2017-08-09T09:29:10.575Z,20.82
2017-08-09T09:30:17.609Z,20.93
2017-08-09T09:31:24.647Z,21.00
2017-08-09T09:32:31.718Z,21.17
2017-08-09T09:33:38.754Z,21.27
2017-08-09T09:34:45.802Z,21.39
2017-08-09T09:35:52.847Z,21.46
2017-08-09T09:36:59.914Z,21.64
2017-08-09T09:38:06.947Z,21.77
2017-08-09T09:39:14.048Z,21.91
2017-08-09T09:40:21.088Z,22.02
2017-08-09T09:41:28.132Z,22.12
2017-08-09T09:42:35.162Z,22.21
2017-08-09T09:43:42.202Z,22.32
2017-08-09T09:44:49.251Z,22.41
2017-08-09T09:45:56.278Z,22.44
2017-08-09T09:47:03.311Z,22.60
2017-08-09T09:48:10.348Z,22.69
2017-08-09T09:49:17.378Z,22.78
2017-08-09T09:50:24.419Z,22.88
2017-08-09T09:51:31.450Z,22.95
2017-08-09T09:52:38.494Z,23.00
2017-08-09T09:53:45.595Z,23.02
2017-08-09T09:54:52.677Z,23.06
2017-08-09T09:55:59.706Z,23.14
2017-08-09T09:57:06.726Z,23.22
2017-08-09T09:58:13.758Z,23.28
2017-08-09T09:59:20.791Z,23.42
2017-08-09T10:00:27.842Z,23.51
2017-08-09T10:01:34.863Z,23.59
2017-08-09T10:02:41.927Z,23.63
2017-08-09T10:03:48.960Z,23.66
2017-08-09T10:04:55.984Z,23.66
2017-08-09T10:06:03.019Z,23.58
2017-08-09T10:07:10.076Z,23.59
2017-08-09T10:08:17.139Z,23.55
2017-08-09T10:09:24.191Z,23.53
2017-08-09T10:10:31.247Z,23.53
2017-08-09T10:11:38.302Z,23.56
2017-08-09T10:12:45.354Z,23.60
2017-08-09T10:13:52.407Z,23.57
2017-08-09T10:14:59.454Z,23.69
2017-08-09T10:16:06.543Z,23.76
2017-08-09T10:17:13.595Z,23.97
2017-08-09T10:18:20.639Z,24.22
2017-08-09T10:19:27.683Z,24.44
2017-08-09T10:20:34.736Z,24.62
2017-08-09T10:21:41.791Z,24.74
2017-08-09T10:22:48.847Z,24.81
2017-08-09T10:23:55.890Z,24.85
2017-08-09T10:25:02.926Z,24.86
2017-08-09T10:26:09.963Z,24.86
2017-08-09T10:27:17.004Z,24.86
2017-08-09T10:28:24.061Z,24.83
2017-08-09T10:29:31.111Z,24.82
2017-08-09T10:30:38.157Z,24.81
2017-08-09T10:31:45.255Z,24.80
2017-08-09T10:32:52.298Z,24.77
2017-08-09T10:33:59.322Z,24.75
2017-08-09T10:35:06.367Z,24.71
2017-08-09T10:36:13.395Z,24.67
2017-08-09T10:37:20.436Z,24.64
2017-08-09T10:38:27.493Z,24.59
2017-08-09T10:39:34.548Z,24.57
2017-08-09T10:40:41.599Z,24.54
2017-08-09T10:41:48.639Z,24.52
2017-08-09T10:42:55.700Z,24.52
2017-08-09T10:44:02.735Z,24.50
2017-08-09T10:45:09.766Z,24.51
2017-08-09T10:46:16.803Z,24.51
2017-08-09T10:47:23.858Z,24.49
2017-08-09T10:48:30.891Z,24.45
2017-08-09T10:49:37.934Z,24.43
2017-08-09T10:50:44.970Z,24.40
2017-08-09T10:51:52.008Z,24.38
2017-08-09T10:52:59.062Z,24.29
2017-08-09T10:54:06.096Z,24.32
2017-08-09T10:55:13.143Z,24.32
2017-08-09T10:56:20.195Z,24.33
2017-08-09T10:57:27.244Z,24.34
2017-08-09T10:58:34.305Z,24.37
2017-08-09T10:59:41.333Z,24.40
2017-08-09T11:00:48.379Z,24.45
2017-08-09T11:01:55.428Z,24.51
2017-08-09T11:03:02.470Z,24.56
2017-08-09T11:04:09.508Z,24.60
2017-08-09T11:05:16.546Z,24.64
2017-08-09T11:06:23.596Z,24.70
2017-08-09T11:07:30.622Z,24.76
2017-08-09T11:08:37.688Z,24.83
2017-08-09T11:09:44.714Z,24.90
2017-08-09T11:10:51.743Z,24.93
2017-08-09T11:11:58.768Z,25.03
2017-08-09T11:13:05.810Z,25.05
2017-08-09T11:14:12.870Z,25.06
2017-08-09T11:15:19.906Z,25.02
2017-08-09T11:16:26.936Z,24.99
2017-08-09T11:17:33.963Z,24.95
2017-08-09T11:18:41.004Z,24.89
2017-08-09T11:19:48.058Z,24.85
2017-08-09T11:20:55.084Z,24.81
2017-08-09T11:22:02.115Z,24.78
2017-08-09T11:23:09.138Z,24.74
2017-08-09T11:24:16.203Z,24.72
2017-08-09T11:25:23.251Z,24.69
2017-08-09T11:26:30.291Z,24.65
2017-08-09T11:27:37.379Z,24.55
2017-08-09T11:28:44.418Z,24.57
2017-08-09T11:29:51.478Z,24.54
2017-08-09T11:30:58.515Z,24.49
2017-08-09T11:32:05.539Z,24.45
2017-08-09T11:33:12.563Z,24.39
2017-08-09T11:34:19.595Z,24.35
2017-08-09T11:35:26.670Z,24.30
2017-08-09T11:36:33.712Z,24.26
2017-08-09T11:37:40.762Z,24.25
2017-08-09T11:38:47.801Z,24.26
2017-08-09T11:39:54.832Z,24.31
2017-08-09T11:41:01.888Z,24.40
2017-08-09T11:42:08.911Z,24.48
2017-08-09T11:43:15.943Z,24.53
2017-08-09T11:44:22.983Z,24.58
2017-08-09T11:45:30.038Z,24.64
2017-08-09T11:46:37.064Z,24.70
2017-08-09T11:47:44.104Z,24.78
2017-08-09T11:48:51.126Z,24.83
2017-08-09T11:49:58.166Z,24.77
2017-08-09T11:51:05.198Z,24.82
2017-08-09T11:52:12.226Z,24.80
2017-08-09T11:53:19.259Z,24.77
2017-08-09T11:54:26.290Z,24.74
2017-08-09T11:55:33.378Z,24.63
2017-08-09T11:56:40.424Z,24.63
2017-08-09T11:57:47.454Z,24.56
2017-08-09T11:58:54.514Z,24.49
2017-08-09T12:00:01.571Z,24.43
2017-08-09T12:01:08.627Z,24.39
2017-08-09T12:02:15.665Z,24.34
2017-08-09T12:03:22.702Z,24.30
2017-08-09T12:04:29.736Z,24.30
2017-08-09T12:05:36.765Z,24.32
2017-08-09T12:06:43.823Z,24.39
2017-08-09T12:07:50.883Z,24.46
2017-08-09T12:08:57.918Z,24.55
2017-08-09T12:10:04.975Z,24.64
2017-08-09T12:11:12.007Z,24.73
2017-08-09T12:12:19.059Z,24.81
2017-08-09T12:13:26.107Z,24.86
2017-08-09T12:14:33.139Z,24.90
2017-08-09T12:15:40.193Z,24.92
2017-08-09T12:16:47.239Z,24.91
2017-08-09T12:17:54.288Z,24.92
2017-08-09T12:19:01.324Z,24.94
2017-08-09T12:20:08.366Z,24.98
2017-08-09T12:21:15.424Z,24.98
2017-08-09T12:22:22.479Z,25.05
2017-08-09T12:23:29.519Z,25.10
2017-08-09T12:24:36.563Z,25.13
2017-08-09T12:25:43.616Z,25.17
2017-08-09T12:26:50.698Z,25.22
2017-08-09T12:27:57.779Z,25.29
2017-08-09T12:29:04.823Z,25.36
2017-08-09T12:30:11.858Z,25.43
2017-08-09T12:31:18.896Z,25.52
2017-08-09T12:32:25.942Z,25.61
2017-08-09T12:33:32.991Z,25.72
2017-08-09T12:34:40.036Z,25.83
2017-08-09T12:35:47.096Z,25.93
2017-08-09T12:36:54.150Z,26.04
2017-08-09T12:38:01.242Z,26.14
2017-08-09T12:39:08.278Z,26.23
2017-08-09T12:40:15.342Z,26.31
2017-08-09T12:41:22.383Z,26.40
2017-08-09T12:42:29.443Z,26.48
2017-08-09T12:43:36.486Z,26.57
2017-08-09T12:44:43.539Z,26.60
2017-08-09T12:45:50.583Z,26.72
2017-08-09T12:46:57.626Z,26.80
2017-08-09T12:48:04.667Z,26.87
2017-08-09T12:49:11.719Z,26.88
2017-08-09T12:50:18.759Z,27.00
2017-08-09T12:51:25.783Z,27.07
2017-08-09T12:52:32.818Z,27.11
2017-08-09T12:53:39.872Z,27.16
2017-08-09T12:54:46.843Z,27.18
2017-08-09T12:55:53.890Z,27.21
2017-08-09T12:57:00.940Z,27.22
2017-08-09T12:58:07.994Z,27.23
2017-08-09T12:59:15.052Z,27.25
2017-08-09T13:00:22.092Z,27.25
2017-08-09T13:01:29.128Z,27.26
2017-08-09T13:02:36.160Z,27.26
2017-08-09T13:03:43.198Z,27.26
2017-08-09T13:04:50.247Z,27.26
2017-08-09T13:05:57.287Z,27.29
2017-08-09T13:07:04.651Z,27.31
2017-08-09T13:08:11.166Z,27.33
2017-08-09T13:09:18.255Z,27.26
2017-08-09T13:10:25.304Z,27.32
2017-08-09T13:11:32.562Z,27.33
2017-08-09T13:12:39.892Z,27.28
2017-08-09T13:13:46.311Z,27.35
2017-08-09T13:14:53.394Z,27.38
2017-08-09T13:16:00.465Z,27.39
2017-08-09T13:17:07.514Z,27.34
2017-08-09T13:18:14.571Z,27.40
2017-08-09T13:19:21.674Z,27.42
2017-08-09T13:20:28.743Z,27.43
2017-08-09T13:21:35.787Z,27.43
2017-08-09T13:22:42.835Z,27.43
2017-08-09T13:23:49.894Z,27.38
2017-08-09T13:24:56.953Z,27.35
2017-08-09T13:26:04.019Z,27.33
2017-08-09T13:27:11.088Z,27.33
2017-08-09T13:28:18.139Z,27.34
2017-08-09T13:29:25.198Z,27.36
2017-08-09T13:30:32.268Z,27.38
2017-08-09T13:31:39.336Z,27.43
2017-08-09T13:32:46.411Z,27.47
2017-08-09T13:33:53.471Z,27.51
2017-08-09T13:35:00.525Z,27.54
2017-08-09T13:36:07.598Z,27.55
2017-08-09T13:37:15.163Z,27.55
2017-08-09T13:38:21.709Z,27.57
2017-08-09T13:39:28.775Z,27.59
2017-08-09T13:40:35.890Z,27.60
2017-08-09T13:41:42.959Z,27.62
2017-08-09T13:42:50.003Z,27.61
2017-08-09T13:43:57.064Z,27.53
2017-08-09T13:45:04.127Z,27.58
2017-08-09T13:46:11.226Z,27.56
2017-08-09T13:47:18.283Z,27.53
2017-08-09T13:48:25.335Z,27.49
2017-08-09T13:49:32.386Z,27.45
2017-08-09T13:50:39.421Z,27.42
2017-08-09T13:51:46.467Z,27.37
2017-08-09T13:52:53.563Z,27.35
2017-08-09T13:54:00.645Z,27.34
2017-08-09T13:55:07.682Z,27.31
2017-08-09T13:56:14.740Z,27.29
2017-08-09T13:57:21.790Z,27.28
2017-08-09T13:58:28.843Z,27.26
2017-08-09T13:59:35.890Z,27.24
2017-08-09T14:00:42.942Z,27.16
2017-08-09T14:01:49.991Z,27.14
2017-08-09T14:02:57.062Z,27.16
2017-08-09T14:04:04.122Z,27.12
2017-08-09T14:05:11.160Z,27.08
2017-08-09T14:06:18.220Z,27.02
2017-08-09T14:07:25.270Z,26.96
2017-08-09T14:08:32.348Z,26.93
2017-08-09T14:09:39.448Z,26.91
2017-08-09T14:10:46.490Z,26.92
2017-08-09T14:11:53.542Z,26.90
2017-08-09T14:13:00.719Z,26.89
2017-08-09T14:14:07.773Z,26.86
2017-08-09T14:15:14.865Z,26.81
2017-08-09T14:16:21.909Z,26.75
2017-08-09T14:17:29.159Z,26.68
2017-08-09T14:18:35.904Z,26.63
2017-08-09T14:19:43.007Z,26.56
2017-08-09T14:20:50.094Z,26.52
2017-08-09T14:21:57.167Z,26.46
2017-08-09T14:23:04.214Z,26.41